sensor_id;sensor_type;location;lat;lon;timestamp;P1;durP1;ratioP1;P2;durP2;ratioP2
28988;SDS011;16089;59.952;10.818;2023-05-14T00:00:39;5.82;;;4.45;;
28988;SDS011;16089;59.952;10.818;2023-05-14T00:03:05;8.35;;;4.63;;
28988;SDS011;16089;59.952;10.818;2023-05-14T00:05:31;8.50;;;4.60;;
28988;SDS011;16089;59.952;10.818;2023-05-14T00:07:58;8.80;;;4.30;;
28988;SDS011;16089;59.952;10.818;2023-05-14T00:10:25;7.45;;;4.38;;
28988;SDS011;16089;59.952;10.818;2023-05-14T00:12:53;8.20;;;4.13;;
28988;SDS011;16089;59.952;10.818;2023-05-14T00:15:19;7.22;;;4.28;;
28988;SDS011;16089;59.952;10.818;2023-05-14T00:17:46;6.40;;;4.25;;
28988;SDS011;16089;59.952;10.818;2023-05-14T00:20:12;9.40;;;4.57;;
28988;SDS011;16089;59.952;10.818;2023-05-14T00:22:39;5.65;;;4.00;;
28988;SDS011;16089;59.952;10.818;2023-05-14T00:25:05;6.03;;;4.30;;
28988;SDS011;16089;59.952;10.818;2023-05-14T00:27:32;7.40;;;4.28;;
28988;SDS011;16089;59.952;10.818;2023-05-14T00:30:00;7.00;;;4.20;;
28988;SDS011;16089;59.952;10.818;2023-05-14T00:32:26;11.10;;;4.22;;
28988;SDS011;16089;59.952;10.818;2023-05-14T00:34:52;5.70;;;4.05;;
28988;SDS011;16089;59.952;10.818;2023-05-14T00:37:19;5.72;;;4.38;;
28988;SDS011;16089;59.952;10.818;2023-05-14T00:39:45;7.97;;;4.35;;
28988;SDS011;16089;59.952;10.818;2023-05-14T00:42:12;7.72;;;4.38;;
28988;SDS011;16089;59.952;10.818;2023-05-14T00:44:38;7.28;;;4.45;;
28988;SDS011;16089;59.952;10.818;2023-05-14T00:47:06;8.48;;;4.75;;
28988;SDS011;16089;59.952;10.818;2023-05-14T00:49:33;10.27;;;4.78;;
28988;SDS011;16089;59.952;10.818;2023-05-14T00:51:59;8.52;;;4.65;;
28988;SDS011;16089;59.952;10.818;2023-05-14T00:54:25;6.75;;;4.53;;
28988;SDS011;16089;59.952;10.818;2023-05-14T00:56:53;7.65;;;4.53;;
28988;SDS011;16089;59.952;10.818;2023-05-14T00:59:20;7.50;;;4.80;;
28988;SDS011;16089;59.952;10.818;2023-05-14T01:01:46;6.68;;;4.10;;
28988;SDS011;16089;59.952;10.818;2023-05-14T01:04:14;7.25;;;3.92;;
28988;SDS011;16089;59.952;10.818;2023-05-14T01:06:42;7.18;;;4.13;;
28988;SDS011;16089;59.952;10.818;2023-05-14T01:09:13;6.28;;;4.10;;
28988;SDS011;16089;59.952;10.818;2023-05-14T01:11:43;7.03;;;3.92;;
28988;SDS011;16089;59.952;10.818;2023-05-14T01:14:13;7.78;;;3.88;;
28988;SDS011;16089;59.952;10.818;2023-05-14T01:16:42;6.32;;;3.75;;
28988;SDS011;16089;59.952;10.818;2023-05-14T01:19:16;6.90;;;3.80;;
28988;SDS011;16089;59.952;10.818;2023-05-14T01:21:47;5.93;;;3.88;;
28988;SDS011;16089;59.952;10.818;2023-05-14T01:24:14;5.55;;;4.05;;
28988;SDS011;16089;59.952;10.818;2023-05-14T01:26:40;7.18;;;3.63;;
28988;SDS011;16089;59.952;10.818;2023-05-14T01:29:08;5.90;;;4.05;;
28988;SDS011;16089;59.952;10.818;2023-05-14T01:31:36;6.22;;;3.90;;
28988;SDS011;16089;59.952;10.818;2023-05-14T01:34:03;9.07;;;4.40;;
28988;SDS011;16089;59.952;10.818;2023-05-14T01:36:31;5.65;;;3.80;;
28988;SDS011;16089;59.952;10.818;2023-05-14T01:38:59;6.90;;;3.80;;
28988;SDS011;16089;59.952;10.818;2023-05-14T01:41:26;5.63;;;3.78;;
28988;SDS011;16089;59.952;10.818;2023-05-14T01:43:52;7.97;;;4.00;;
28988;SDS011;16089;59.952;10.818;2023-05-14T01:46:19;9.13;;;4.35;;
28988;SDS011;16089;59.952;10.818;2023-05-14T01:48:48;7.25;;;4.15;;
28988;SDS011;16089;59.952;10.818;2023-05-14T01:51:14;6.65;;;3.88;;
28988;SDS011;16089;59.952;10.818;2023-05-14T01:53:40;6.00;;;3.97;;
28988;SDS011;16089;59.952;10.818;2023-05-14T01:56:08;6.45;;;4.00;;
28988;SDS011;16089;59.952;10.818;2023-05-14T01:58:34;6.32;;;4.65;;
28988;SDS011;16089;59.952;10.818;2023-05-14T02:01:01;6.45;;;4.00;;
28988;SDS011;16089;59.952;10.818;2023-05-14T02:03:27;7.15;;;3.85;;
28988;SDS011;16089;59.952;10.818;2023-05-14T02:05:53;7.35;;;4.00;;
28988;SDS011;16089;59.952;10.818;2023-05-14T02:08:20;6.35;;;4.15;;
28988;SDS011;16089;59.952;10.818;2023-05-14T02:10:46;6.50;;;4.43;;
28988;SDS011;16089;59.952;10.818;2023-05-14T02:13:14;9.35;;;4.55;;
28988;SDS011;16089;59.952;10.818;2023-05-14T02:15:40;8.80;;;4.90;;
28988;SDS011;16089;59.952;10.818;2023-05-14T02:18:06;8.30;;;4.35;;
28988;SDS011;16089;59.952;10.818;2023-05-14T02:20:33;8.90;;;4.75;;
28988;SDS011;16089;59.952;10.818;2023-05-14T02:22:59;7.50;;;4.28;;
28988;SDS011;16089;59.952;10.818;2023-05-14T02:25:25;7.30;;;5.18;;
28988;SDS011;16089;59.952;10.818;2023-05-14T02:27:52;8.35;;;4.70;;
28988;SDS011;16089;59.952;10.818;2023-05-14T02:30:20;7.03;;;4.55;;
28988;SDS011;16089;59.952;10.818;2023-05-14T02:32:46;6.53;;;4.45;;
28988;SDS011;16089;59.952;10.818;2023-05-14T02:35:12;6.50;;;4.38;;
28988;SDS011;16089;59.952;10.818;2023-05-14T02:37:39;7.63;;;4.32;;
28988;SDS011;16089;59.952;10.818;2023-05-14T02:40:05;5.72;;;3.90;;
28988;SDS011;16089;59.952;10.818;2023-05-14T02:42:32;6.25;;;4.13;;
28988;SDS011;16089;59.952;10.818;2023-05-14T02:44:58;5.60;;;3.95;;
28988;SDS011;16089;59.952;10.818;2023-05-14T02:47:26;9.98;;;4.57;;
28988;SDS011;16089;59.952;10.818;2023-05-14T02:49:52;7.13;;;4.90;;
28988;SDS011;16089;59.952;10.818;2023-05-14T02:52:18;9.82;;;4.38;;
28988;SDS011;16089;59.952;10.818;2023-05-14T02:54:45;7.35;;;4.20;;
28988;SDS011;16089;59.952;10.818;2023-05-14T02:57:11;8.82;;;4.57;;
28988;SDS011;16089;59.952;10.818;2023-05-14T02:59:38;6.32;;;4.68;;
28988;SDS011;16089;59.952;10.818;2023-05-14T03:02:04;8.43;;;4.57;;
28988;SDS011;16089;59.952;10.818;2023-05-14T03:04:32;7.68;;;5.03;;
28988;SDS011;16089;59.952;10.818;2023-05-14T03:06:58;7.15;;;4.68;;
28988;SDS011;16089;59.952;10.818;2023-05-14T03:09:25;6.47;;;4.63;;
28988;SDS011;16089;59.952;10.818;2023-05-14T03:11:51;6.55;;;4.97;;
28988;SDS011;16089;59.952;10.818;2023-05-14T03:14:17;8.15;;;4.80;;
28988;SDS011;16089;59.952;10.818;2023-05-14T03:16:44;6.50;;;4.40;;
28988;SDS011;16089;59.952;10.818;2023-05-14T03:19:10;7.25;;;4.57;;
28988;SDS011;16089;59.952;10.818;2023-05-14T03:21:38;6.70;;;4.60;;
28988;SDS011;16089;59.952;10.818;2023-05-14T03:24:04;7.53;;;4.45;;
28988;SDS011;16089;59.952;10.818;2023-05-14T03:26:30;5.88;;;4.55;;
28988;SDS011;16089;59.952;10.818;2023-05-14T03:28:57;7.50;;;4.50;;
28988;SDS011;16089;59.952;10.818;2023-05-14T03:31:24;6.53;;;4.55;;
28988;SDS011;16089;59.952;10.818;2023-05-14T03:33:50;8.25;;;5.22;;
28988;SDS011;16089;59.952;10.818;2023-05-14T03:36:17;9.63;;;4.57;;
28988;SDS011;16089;59.952;10.818;2023-05-14T03:38:44;6.75;;;4.97;;
28988;SDS011;16089;59.952;10.818;2023-05-14T03:41:11;6.95;;;4.68;;
28988;SDS011;16089;59.952;10.818;2023-05-14T03:43:37;8.38;;;4.70;;
28988;SDS011;16089;59.952;10.818;2023-05-14T03:46:03;7.53;;;5.30;;
28988;SDS011;16089;59.952;10.818;2023-05-14T03:48:30;6.50;;;4.68;;
28988;SDS011;16089;59.952;10.818;2023-05-14T03:50:56;6.50;;;4.60;;
28988;SDS011;16089;59.952;10.818;2023-05-14T03:53:22;6.80;;;4.05;;
28988;SDS011;16089;59.952;10.818;2023-05-14T03:55:50;9.95;;;5.18;;
28988;SDS011;16089;59.952;10.818;2023-05-14T03:58:16;6.25;;;4.65;;
28988;SDS011;16089;59.952;10.818;2023-05-14T04:00:43;8.15;;;4.40;;
28988;SDS011;16089;59.952;10.818;2023-05-14T04:03:09;6.35;;;4.60;;
28988;SDS011;16089;59.952;10.818;2023-05-14T04:05:35;6.30;;;4.78;;
28988;SDS011;16089;59.952;10.818;2023-05-14T04:08:02;10.50;;;4.53;;
28988;SDS011;16089;59.952;10.818;2023-05-14T04:10:28;8.60;;;4.32;;
28988;SDS011;16089;59.952;10.818;2023-05-14T04:12:56;6.63;;;4.75;;
28988;SDS011;16089;59.952;10.818;2023-05-14T04:15:22;6.13;;;3.92;;
28988;SDS011;16089;59.952;10.818;2023-05-14T04:17:49;7.60;;;4.82;;
28988;SDS011;16089;59.952;10.818;2023-05-14T04:20:15;5.72;;;4.15;;
28988;SDS011;16089;59.952;10.818;2023-05-14T04:22:41;9.05;;;4.88;;
28988;SDS011;16089;59.952;10.818;2023-05-14T04:25:08;7.35;;;4.55;;
28988;SDS011;16089;59.952;10.818;2023-05-14T04:27:34;7.38;;;4.13;;
28988;SDS011;16089;59.952;10.818;2023-05-14T04:30:02;8.48;;;4.75;;
28988;SDS011;16089;59.952;10.818;2023-05-14T04:32:28;7.50;;;4.60;;
28988;SDS011;16089;59.952;10.818;2023-05-14T04:34:55;6.10;;;4.40;;
28988;SDS011;16089;59.952;10.818;2023-05-14T04:37:21;6.88;;;4.50;;
28988;SDS011;16089;59.952;10.818;2023-05-14T04:39:47;6.20;;;4.40;;
28988;SDS011;16089;59.952;10.818;2023-05-14T04:42:14;5.75;;;3.95;;
28988;SDS011;16089;59.952;10.818;2023-05-14T04:44:40;7.05;;;4.80;;
28988;SDS011;16089;59.952;10.818;2023-05-14T04:47:08;7.25;;;4.30;;
28988;SDS011;16089;59.952;10.818;2023-05-14T04:49:34;5.45;;;4.13;;
28988;SDS011;16089;59.952;10.818;2023-05-14T04:52:00;8.35;;;4.40;;
28988;SDS011;16089;59.952;10.818;2023-05-14T04:54:27;7.45;;;4.45;;
28988;SDS011;16089;59.952;10.818;2023-05-14T04:56:53;6.50;;;4.60;;
28988;SDS011;16089;59.952;10.818;2023-05-14T04:59:20;6.60;;;4.22;;
28988;SDS011;16089;59.952;10.818;2023-05-14T05:01:46;5.40;;;3.95;;
28988;SDS011;16089;59.952;10.818;2023-05-14T05:04:14;7.00;;;4.57;;
28988;SDS011;16089;59.952;10.818;2023-05-14T05:06:40;7.15;;;4.40;;
28988;SDS011;16089;59.952;10.818;2023-05-14T05:09:07;6.03;;;4.20;;
28988;SDS011;16089;59.952;10.818;2023-05-14T05:11:33;6.63;;;4.40;;
28988;SDS011;16089;59.952;10.818;2023-05-14T05:14:00;7.63;;;4.35;;
28988;SDS011;16089;59.952;10.818;2023-05-14T05:16:26;6.43;;;4.32;;
28988;SDS011;16089;59.952;10.818;2023-05-14T05:18:53;7.82;;;4.40;;
28988;SDS011;16089;59.952;10.818;2023-05-14T05:21:20;7.85;;;4.15;;
28988;SDS011;16089;59.952;10.818;2023-05-14T05:23:47;6.28;;;4.63;;
28988;SDS011;16089;59.952;10.818;2023-05-14T05:26:13;7.22;;;4.35;;
28988;SDS011;16089;59.952;10.818;2023-05-14T05:28:39;8.30;;;4.50;;
28988;SDS011;16089;59.952;10.818;2023-05-14T05:31:06;11.05;;;4.72;;
28988;SDS011;16089;59.952;10.818;2023-05-14T05:33:32;7.88;;;4.85;;
28988;SDS011;16089;59.952;10.818;2023-05-14T05:35:59;6.35;;;4.72;;
28988;SDS011;16089;59.952;10.818;2023-05-14T05:38:26;8.98;;;5.05;;
28988;SDS011;16089;59.952;10.818;2023-05-14T05:40:53;6.88;;;4.25;;
28988;SDS011;16089;59.952;10.818;2023-05-14T05:43:19;8.43;;;4.90;;
28988;SDS011;16089;59.952;10.818;2023-05-14T05:45:46;6.53;;;4.60;;
28988;SDS011;16089;59.952;10.818;2023-05-14T05:48:12;7.68;;;5.07;;
28988;SDS011;16089;59.952;10.818;2023-05-14T05:50:39;7.88;;;4.50;;
28988;SDS011;16089;59.952;10.818;2023-05-14T05:53:05;9.50;;;4.82;;
28988;SDS011;16089;59.952;10.818;2023-05-14T05:55:33;7.10;;;4.35;;
28988;SDS011;16089;59.952;10.818;2023-05-14T05:57:59;7.22;;;4.38;;
28988;SDS011;16089;59.952;10.818;2023-05-14T06:00:25;8.38;;;4.30;;
28988;SDS011;16089;59.952;10.818;2023-05-14T06:02:52;6.78;;;4.78;;
28988;SDS011;16089;59.952;10.818;2023-05-14T06:05:18;6.10;;;4.20;;
28988;SDS011;16089;59.952;10.818;2023-05-14T06:07:45;8.57;;;4.70;;
28988;SDS011;16089;59.952;10.818;2023-05-14T06:10:11;10.32;;;4.32;;
28988;SDS011;16089;59.952;10.818;2023-05-14T06:12:39;10.80;;;4.30;;
28988;SDS011;16089;59.952;10.818;2023-05-14T06:15:06;5.78;;;4.13;;
28988;SDS011;16089;59.952;10.818;2023-05-14T06:17:32;7.30;;;4.32;;
28988;SDS011;16089;59.952;10.818;2023-05-14T06:19:59;7.97;;;4.22;;
28988;SDS011;16089;59.952;10.818;2023-05-14T06:22:25;9.75;;;3.90;;
28988;SDS011;16089;59.952;10.818;2023-05-14T06:24:51;8.65;;;4.32;;
28988;SDS011;16089;59.952;10.818;2023-05-14T06:27:18;9.35;;;4.10;;
28988;SDS011;16089;59.952;10.818;2023-05-14T06:29:45;7.53;;;4.53;;
28988;SDS011;16089;59.952;10.818;2023-05-14T06:32:12;8.40;;;3.72;;
28988;SDS011;16089;59.952;10.818;2023-05-14T06:34:39;7.82;;;4.13;;
28988;SDS011;16089;59.952;10.818;2023-05-14T06:37:06;6.10;;;3.75;;
28988;SDS011;16089;59.952;10.818;2023-05-14T06:39:33;7.07;;;4.13;;
28988;SDS011;16089;59.952;10.818;2023-05-14T06:41:59;9.93;;;4.70;;
28988;SDS011;16089;59.952;10.818;2023-05-14T06:44:26;7.20;;;4.28;;
28988;SDS011;16089;59.952;10.818;2023-05-14T06:46:53;8.77;;;3.80;;
28988;SDS011;16089;59.952;10.818;2023-05-14T06:49:20;7.47;;;4.10;;
28988;SDS011;16089;59.952;10.818;2023-05-14T06:51:46;7.65;;;4.38;;
28988;SDS011;16089;59.952;10.818;2023-05-14T06:54:12;10.07;;;4.07;;
28988;SDS011;16089;59.952;10.818;2023-05-14T06:56:39;9.00;;;4.22;;
28988;SDS011;16089;59.952;10.818;2023-05-14T06:59:05;10.15;;;3.88;;
28988;SDS011;16089;59.952;10.818;2023-05-14T07:01:31;9.25;;;4.40;;
28988;SDS011;16089;59.952;10.818;2023-05-14T07:03:59;6.95;;;3.97;;
28988;SDS011;16089;59.952;10.818;2023-05-14T07:06:25;8.10;;;4.20;;
28988;SDS011;16089;59.952;10.818;2023-05-14T07:08:52;12.40;;;4.00;;
28988;SDS011;16089;59.952;10.818;2023-05-14T07:11:18;10.00;;;4.07;;
28988;SDS011;16089;59.952;10.818;2023-05-14T07:13:46;11.82;;;5.25;;
28988;SDS011;16089;59.952;10.818;2023-05-14T07:16:12;12.63;;;4.85;;
28988;SDS011;16089;59.952;10.818;2023-05-14T07:18:38;7.90;;;4.28;;
28988;SDS011;16089;59.952;10.818;2023-05-14T07:21:06;5.57;;;3.28;;
28988;SDS011;16089;59.952;10.818;2023-05-14T07:23:33;7.90;;;3.70;;
28988;SDS011;16089;59.952;10.818;2023-05-14T07:26:00;6.28;;;3.60;;
28988;SDS011;16089;59.952;10.818;2023-05-14T07:28:26;8.07;;;3.85;;
28988;SDS011;16089;59.952;10.818;2023-05-14T07:30:53;5.63;;;3.53;;
28988;SDS011;16089;59.952;10.818;2023-05-14T07:33:19;8.05;;;3.90;;
28988;SDS011;16089;59.952;10.818;2023-05-14T07:35:46;11.35;;;5.72;;
28988;SDS011;16089;59.952;10.818;2023-05-14T07:38:13;10.85;;;3.70;;
28988;SDS011;16089;59.952;10.818;2023-05-14T07:40:40;7.13;;;4.43;;
28988;SDS011;16089;59.952;10.818;2023-05-14T07:43:06;5.95;;;3.90;;
28988;SDS011;16089;59.952;10.818;2023-05-14T07:45:33;6.43;;;3.60;;
28988;SDS011;16089;59.952;10.818;2023-05-14T07:47:59;9.40;;;3.67;;
28988;SDS011;16089;59.952;10.818;2023-05-14T07:50:25;8.40;;;3.83;;
28988;SDS011;16089;59.952;10.818;2023-05-14T07:52:52;9.43;;;3.83;;
28988;SDS011;16089;59.952;10.818;2023-05-14T07:55:19;9.20;;;3.72;;
28988;SDS011;16089;59.952;10.818;2023-05-14T07:57:46;6.15;;;3.60;;
28988;SDS011;16089;59.952;10.818;2023-05-14T08:00:12;9.25;;;4.10;;
28988;SDS011;16089;59.952;10.818;2023-05-14T08:02:40;7.35;;;3.92;;
28988;SDS011;16089;59.952;10.818;2023-05-14T08:05:06;10.48;;;3.80;;
28988;SDS011;16089;59.952;10.818;2023-05-14T08:07:33;6.38;;;4.10;;
28988;SDS011;16089;59.952;10.818;2023-05-14T08:09:59;6.07;;;3.72;;
28988;SDS011;16089;59.952;10.818;2023-05-14T08:12:27;6.30;;;3.72;;
28988;SDS011;16089;59.952;10.818;2023-05-14T08:14:54;7.25;;;4.30;;
28988;SDS011;16089;59.952;10.818;2023-05-14T08:17:21;10.18;;;4.00;;
28988;SDS011;16089;59.952;10.818;2023-05-14T08:19:47;7.68;;;3.75;;
28988;SDS011;16089;59.952;10.818;2023-05-14T08:22:13;18.63;;;3.97;;
28988;SDS011;16089;59.952;10.818;2023-05-14T08:24:40;7.68;;;3.63;;
28988;SDS011;16089;59.952;10.818;2023-05-14T08:27:07;8.55;;;3.40;;
28988;SDS011;16089;59.952;10.818;2023-05-14T08:29:34;7.07;;;4.45;;
28988;SDS011;16089;59.952;10.818;2023-05-14T08:32:01;7.05;;;3.25;;
28988;SDS011;16089;59.952;10.818;2023-05-14T08:34:27;7.63;;;3.50;;
28988;SDS011;16089;59.952;10.818;2023-05-14T08:36:54;8.90;;;3.50;;
28988;SDS011;16089;59.952;10.818;2023-05-14T08:39:20;6.22;;;3.65;;
28988;SDS011;16089;59.952;10.818;2023-05-14T08:41:46;8.82;;;3.67;;
28988;SDS011;16089;59.952;10.818;2023-05-14T08:44:13;10.45;;;3.83;;
28988;SDS011;16089;59.952;10.818;2023-05-14T08:46:41;12.05;;;3.50;;
28988;SDS011;16089;59.952;10.818;2023-05-14T08:49:12;12.50;;;4.28;;
28988;SDS011;16089;59.952;10.818;2023-05-14T08:51:40;8.15;;;3.78;;
28988;SDS011;16089;59.952;10.818;2023-05-14T08:54:06;5.43;;;3.53;;
28988;SDS011;16089;59.952;10.818;2023-05-14T08:56:33;6.93;;;3.40;;
28988;SDS011;16089;59.952;10.818;2023-05-14T08:59:00;8.25;;;3.38;;
28988;SDS011;16089;59.952;10.818;2023-05-14T09:01:26;6.32;;;3.30;;
28988;SDS011;16089;59.952;10.818;2023-05-14T09:03:55;9.98;;;3.58;;
28988;SDS011;16089;59.952;10.818;2023-05-14T09:06:21;7.78;;;3.20;;
28988;SDS011;16089;59.952;10.818;2023-05-14T09:08:49;6.80;;;3.50;;
28988;SDS011;16089;59.952;10.818;2023-05-14T09:11:15;14.13;;;3.50;;
28988;SDS011;16089;59.952;10.818;2023-05-14T09:13:42;11.02;;;3.53;;
28988;SDS011;16089;59.952;10.818;2023-05-14T09:16:08;5.50;;;3.53;;
28988;SDS011;16089;59.952;10.818;2023-05-14T09:18:35;7.85;;;3.38;;
28988;SDS011;16089;59.952;10.818;2023-05-14T09:21:03;7.95;;;3.42;;
28988;SDS011;16089;59.952;10.818;2023-05-14T09:23:31;7.03;;;3.40;;
28988;SDS011;16089;59.952;10.818;2023-05-14T09:25:57;9.38;;;3.20;;
28988;SDS011;16089;59.952;10.818;2023-05-14T09:28:23;7.35;;;3.40;;
28988;SDS011;16089;59.952;10.818;2023-05-14T09:30:52;11.65;;;3.50;;
28988;SDS011;16089;59.952;10.818;2023-05-14T09:33:24;8.85;;;3.08;;
28988;SDS011;16089;59.952;10.818;2023-05-14T09:35:50;6.88;;;2.92;;
28988;SDS011;16089;59.952;10.818;2023-05-14T09:38:18;7.75;;;2.90;;
28988;SDS011;16089;59.952;10.818;2023-05-14T09:40:45;17.50;;;3.65;;
28988;SDS011;16089;59.952;10.818;2023-05-14T09:43:11;8.40;;;3.00;;
28988;SDS011;16089;59.952;10.818;2023-05-14T09:45:39;8.38;;;3.28;;
28988;SDS011;16089;59.952;10.818;2023-05-14T09:48:06;12.07;;;3.30;;
28988;SDS011;16089;59.952;10.818;2023-05-14T09:50:34;9.93;;;3.17;;
28988;SDS011;16089;59.952;10.818;2023-05-14T09:53:06;6.82;;;2.88;;
28988;SDS011;16089;59.952;10.818;2023-05-14T09:55:34;9.23;;;3.30;;
28988;SDS011;16089;59.952;10.818;2023-05-14T09:58:00;8.70;;;3.08;;
28988;SDS011;16089;59.952;10.818;2023-05-14T10:00:27;8.82;;;3.03;;
28988;SDS011;16089;59.952;10.818;2023-05-14T10:02:54;7.43;;;3.03;;
28988;SDS011;16089;59.952;10.818;2023-05-14T10:05:22;6.70;;;3.30;;
28988;SDS011;16089;59.952;10.818;2023-05-14T10:07:48;5.47;;;3.00;;
28988;SDS011;16089;59.952;10.818;2023-05-14T10:10:17;7.40;;;3.05;;
28988;SDS011;16089;59.952;10.818;2023-05-14T10:12:47;7.95;;;3.53;;
28988;SDS011;16089;59.952;10.818;2023-05-14T10:15:15;10.05;;;3.30;;
28988;SDS011;16089;59.952;10.818;2023-05-14T10:17:43;7.57;;;3.08;;
28988;SDS011;16089;59.952;10.818;2023-05-14T10:20:14;5.82;;;2.63;;
28988;SDS011;16089;59.952;10.818;2023-05-14T10:22:41;7.82;;;3.05;;
28988;SDS011;16089;59.952;10.818;2023-05-14T10:25:07;8.63;;;2.88;;
28988;SDS011;16089;59.952;10.818;2023-05-14T10:27:34;10.82;;;2.92;;
28988;SDS011;16089;59.952;10.818;2023-05-14T10:30:04;8.80;;;2.97;;
28988;SDS011;16089;59.952;10.818;2023-05-14T10:32:31;8.27;;;2.80;;
28988;SDS011;16089;59.952;10.818;2023-05-14T10:34:57;6.35;;;3.10;;
28988;SDS011;16089;59.952;10.818;2023-05-14T10:37:26;7.35;;;2.80;;
28988;SDS011;16089;59.952;10.818;2023-05-14T10:39:53;9.25;;;3.10;;
28988;SDS011;16089;59.952;10.818;2023-05-14T10:42:20;6.82;;;2.55;;
28988;SDS011;16089;59.952;10.818;2023-05-14T10:44:48;5.75;;;2.70;;
28988;SDS011;16089;59.952;10.818;2023-05-14T10:47:16;10.95;;;3.20;;
28988;SDS011;16089;59.952;10.818;2023-05-14T10:49:43;7.22;;;3.08;;
28988;SDS011;16089;59.952;10.818;2023-05-14T10:52:13;8.18;;;2.63;;
28988;SDS011;16089;59.952;10.818;2023-05-14T10:54:41;5.80;;;3.00;;
28988;SDS011;16089;59.952;10.818;2023-05-14T10:57:10;8.88;;;3.25;;
28988;SDS011;16089;59.952;10.818;2023-05-14T10:59:39;6.60;;;3.13;;
28988;SDS011;16089;59.952;10.818;2023-05-14T11:02:07;7.93;;;2.47;;
28988;SDS011;16089;59.952;10.818;2023-05-14T11:04:50;5.60;;;2.45;;
28988;SDS011;16089;59.952;10.818;2023-05-14T11:07:17;26.50;;;3.30;;
28988;SDS011;16089;59.952;10.818;2023-05-14T11:09:44;6.65;;;2.78;;
28988;SDS011;16089;59.952;10.818;2023-05-14T11:12:12;7.03;;;2.75;;
28988;SDS011;16089;59.952;10.818;2023-05-14T11:14:38;6.70;;;3.08;;
28988;SDS011;16089;59.952;10.818;2023-05-14T11:17:06;5.20;;;2.60;;
28988;SDS011;16089;59.952;10.818;2023-05-14T11:19:32;8.48;;;2.90;;
28988;SDS011;16089;59.952;10.818;2023-05-14T11:22:00;6.35;;;2.60;;
28988;SDS011;16089;59.952;10.818;2023-05-14T11:24:26;7.20;;;2.58;;
28988;SDS011;16089;59.952;10.818;2023-05-14T11:26:52;7.95;;;2.97;;
28988;SDS011;16089;59.952;10.818;2023-05-14T11:29:20;6.22;;;2.60;;
28988;SDS011;16089;59.952;10.818;2023-05-14T11:31:46;9.18;;;2.70;;
28988;SDS011;16089;59.952;10.818;2023-05-14T11:34:12;15.20;;;2.90;;
28988;SDS011;16089;59.952;10.818;2023-05-14T11:36:39;7.20;;;2.65;;
28988;SDS011;16089;59.952;10.818;2023-05-14T11:39:07;15.68;;;3.85;;
28988;SDS011;16089;59.952;10.818;2023-05-14T11:41:33;5.70;;;2.80;;
28988;SDS011;16089;59.952;10.818;2023-05-14T11:44:00;7.15;;;2.75;;
28988;SDS011;16089;59.952;10.818;2023-05-14T11:46:26;8.60;;;2.60;;
28988;SDS011;16089;59.952;10.818;2023-05-14T11:48:54;6.45;;;2.78;;
28988;SDS011;16089;59.952;10.818;2023-05-14T11:51:21;9.00;;;2.67;;
28988;SDS011;16089;59.952;10.818;2023-05-14T11:53:48;11.00;;;2.80;;
28988;SDS011;16089;59.952;10.818;2023-05-14T11:56:16;10.73;;;3.08;;
28988;SDS011;16089;59.952;10.818;2023-05-14T11:58:46;12.07;;;3.15;;
28988;SDS011;16089;59.952;10.818;2023-05-14T12:01:12;8.93;;;2.88;;
28988;SDS011;16089;59.952;10.818;2023-05-14T12:03:39;8.48;;;3.22;;
28988;SDS011;16089;59.952;10.818;2023-05-14T12:06:06;6.45;;;2.72;;
28988;SDS011;16089;59.952;10.818;2023-05-14T12:08:33;8.15;;;3.00;;
28988;SDS011;16089;59.952;10.818;2023-05-14T12:10:59;13.85;;;3.35;;
28988;SDS011;16089;59.952;10.818;2023-05-14T12:13:27;11.77;;;3.08;;
28988;SDS011;16089;59.952;10.818;2023-05-14T12:15:55;5.45;;;2.70;;
28988;SDS011;16089;59.952;10.818;2023-05-14T12:18:23;9.23;;;2.95;;
28988;SDS011;16089;59.952;10.818;2023-05-14T12:20:49;11.63;;;3.17;;
28988;SDS011;16089;59.952;10.818;2023-05-14T12:23:16;6.18;;;2.70;;
28988;SDS011;16089;59.952;10.818;2023-05-14T12:25:48;7.68;;;2.85;;
28988;SDS011;16089;59.952;10.818;2023-05-14T12:28:14;11.48;;;3.15;;
28988;SDS011;16089;59.952;10.818;2023-05-14T12:30:42;7.25;;;2.70;;
28988;SDS011;16089;59.952;10.818;2023-05-14T12:33:09;6.75;;;2.90;;
28988;SDS011;16089;59.952;10.818;2023-05-14T12:35:35;6.60;;;2.70;;
28988;SDS011;16089;59.952;10.818;2023-05-14T12:38:01;9.77;;;2.80;;
28988;SDS011;16089;59.952;10.818;2023-05-14T12:40:28;9.50;;;2.80;;
28988;SDS011;16089;59.952;10.818;2023-05-14T12:42:54;9.98;;;2.65;;
28988;SDS011;16089;59.952;10.818;2023-05-14T12:45:21;9.48;;;3.22;;
28988;SDS011;16089;59.952;10.818;2023-05-14T12:47:49;8.35;;;2.83;;
28988;SDS011;16089;59.952;10.818;2023-05-14T12:50:15;6.95;;;2.70;;
28988;SDS011;16089;59.952;10.818;2023-05-14T12:52:41;7.65;;;2.45;;
28988;SDS011;16089;59.952;10.818;2023-05-14T12:55:08;10.65;;;2.70;;
28988;SDS011;16089;59.952;10.818;2023-05-14T12:57:35;9.80;;;3.10;;
28988;SDS011;16089;59.952;10.818;2023-05-14T13:00:02;5.80;;;2.63;;
28988;SDS011;16089;59.952;10.818;2023-05-14T13:02:30;8.38;;;2.60;;
28988;SDS011;16089;59.952;10.818;2023-05-14T13:04:58;10.77;;;3.08;;
28988;SDS011;16089;59.952;10.818;2023-05-14T13:07:26;8.32;;;2.83;;
28988;SDS011;16089;59.952;10.818;2023-05-14T13:09:53;6.25;;;2.70;;
28988;SDS011;16089;59.952;10.818;2023-05-14T13:12:20;9.27;;;2.90;;
28988;SDS011;16089;59.952;10.818;2023-05-14T13:14:47;4.60;;;3.10;;
28988;SDS011;16089;59.952;10.818;2023-05-14T13:17:13;10.93;;;3.17;;
28988;SDS011;16089;59.952;10.818;2023-05-14T13:19:40;8.55;;;3.10;;
28988;SDS011;16089;59.952;10.818;2023-05-14T13:22:07;8.13;;;2.92;;
28988;SDS011;16089;59.952;10.818;2023-05-14T13:24:34;6.38;;;2.70;;
28988;SDS011;16089;59.952;10.818;2023-05-14T13:27:00;11.55;;;2.70;;
28988;SDS011;16089;59.952;10.818;2023-05-14T13:29:27;8.43;;;2.70;;
28988;SDS011;16089;59.952;10.818;2023-05-14T13:31:55;6.53;;;2.88;;
28988;SDS011;16089;59.952;10.818;2023-05-14T13:34:21;8.27;;;2.72;;
28988;SDS011;16089;59.952;10.818;2023-05-14T13:36:48;5.22;;;2.72;;
28988;SDS011;16089;59.952;10.818;2023-05-14T13:39:18;4.82;;;2.85;;
28988;SDS011;16089;59.952;10.818;2023-05-14T13:41:46;8.93;;;2.78;;
28988;SDS011;16089;59.952;10.818;2023-05-14T13:44:14;9.57;;;2.85;;
28988;SDS011;16089;59.952;10.818;2023-05-14T13:46:41;9.63;;;2.80;;
28988;SDS011;16089;59.952;10.818;2023-05-14T13:49:07;8.20;;;3.03;;
28988;SDS011;16089;59.952;10.818;2023-05-14T13:51:33;8.18;;;2.90;;
28988;SDS011;16089;59.952;10.818;2023-05-14T13:54:00;8.95;;;2.65;;
28988;SDS011;16089;59.952;10.818;2023-05-14T13:56:27;8.32;;;2.60;;
28988;SDS011;16089;59.952;10.818;2023-05-14T13:58:54;10.63;;;2.92;;
28988;SDS011;16089;59.952;10.818;2023-05-14T14:01:20;9.13;;;2.67;;
28988;SDS011;16089;59.952;10.818;2023-05-14T14:03:47;6.80;;;2.70;;
28988;SDS011;16089;59.952;10.818;2023-05-14T14:06:13;11.60;;;3.35;;
28988;SDS011;16089;59.952;10.818;2023-05-14T14:08:40;10.68;;;3.25;;
28988;SDS011;16089;59.952;10.818;2023-05-14T14:11:06;9.90;;;3.50;;
28988;SDS011;16089;59.952;10.818;2023-05-14T14:13:34;9.60;;;3.15;;
28988;SDS011;16089;59.952;10.818;2023-05-14T14:16:00;49.67;;;4.40;;
28988;SDS011;16089;59.952;10.818;2023-05-14T14:18:27;17.88;;;2.95;;
28988;SDS011;16089;59.952;10.818;2023-05-14T14:20:53;12.80;;;3.25;;
28988;SDS011;16089;59.952;10.818;2023-05-14T14:23:20;12.68;;;3.10;;
28988;SDS011;16089;59.952;10.818;2023-05-14T14:25:46;11.40;;;3.00;;
28988;SDS011;16089;59.952;10.818;2023-05-14T14:28:12;7.20;;;3.13;;
28988;SDS011;16089;59.952;10.818;2023-05-14T14:30:40;8.38;;;2.92;;